sensor_id;sensor_type;location;lat;lon;timestamp;P1;durP1;ratioP1;P2;durP2;ratioP2
79401;SDS011;68857;47.916;106.940;2023-05-17T00:01:40;7.63;;;3.60;;
79401;SDS011;68857;47.916;106.940;2023-05-17T00:04:07;6.93;;;3.55;;
79401;SDS011;68857;47.916;106.940;2023-05-17T00:06:33;8.02;;;3.42;;
79401;SDS011;68857;47.916;106.940;2023-05-17T00:09:00;6.28;;;4.47;;
79401;SDS011;68857;47.916;106.940;2023-05-17T00:11:27;8.57;;;4.22;;
79401;SDS011;68857;47.916;106.940;2023-05-17T00:13:54;7.15;;;3.75;;
79401;SDS011;68857;47.916;106.940;2023-05-17T00:16:20;7.22;;;4.40;;
79401;SDS011;68857;47.916;106.940;2023-05-17T00:18:46;8.55;;;4.15;;
79401;SDS011;68857;47.916;106.940;2023-05-17T00:21:13;6.38;;;3.55;;
79401;SDS011;68857;47.916;106.940;2023-05-17T00:23:40;5.78;;;4.07;;
79401;SDS011;68857;47.916;106.940;2023-05-17T00:26:06;6.13;;;3.72;;
79401;SDS011;68857;47.916;106.940;2023-05-17T00:28:33;12.25;;;4.63;;
79401;SDS011;68857;47.916;106.940;2023-05-17T00:31:00;6.05;;;3.70;;
79401;SDS011;68857;47.916;106.940;2023-05-17T00:33:26;7.13;;;4.03;;
79401;SDS011;68857;47.916;106.940;2023-05-17T00:35:52;11.23;;;4.47;;
79401;SDS011;68857;47.916;106.940;2023-05-17T00:38:19;6.18;;;3.55;;
79401;SDS011;68857;47.916;106.940;2023-05-17T00:40:46;6.82;;;3.83;;
79401;SDS011;68857;47.916;106.940;2023-05-17T00:43:12;6.03;;;4.28;;
79401;SDS011;68857;47.916;106.940;2023-05-17T00:45:39;4.60;;;3.60;;
79401;SDS011;68857;47.916;106.940;2023-05-17T00:48:06;6.85;;;5.32;;
79401;SDS011;68857;47.916;106.940;2023-05-17T00:50:32;6.10;;;3.75;;
79401;SDS011;68857;47.916;106.940;2023-05-17T00:52:59;9.30;;;4.40;;
79401;SDS011;68857;47.916;106.940;2023-05-17T00:55:26;7.32;;;4.25;;
79401;SDS011;68857;47.916;106.940;2023-05-17T00:57:53;5.63;;;3.72;;
79401;SDS011;68857;47.916;106.940;2023-05-17T01:00:20;6.05;;;3.53;;
79401;SDS011;68857;47.916;106.940;2023-05-17T01:02:46;7.85;;;3.10;;
79401;SDS011;68857;47.916;106.940;2023-05-17T01:05:13;5.82;;;3.58;;
79401;SDS011;68857;47.916;106.940;2023-05-17T01:07:40;4.97;;;3.42;;
79401;SDS011;68857;47.916;106.940;2023-05-17T01:10:07;6.13;;;3.97;;
79401;SDS011;68857;47.916;106.940;2023-05-17T01:15:55;5.97;;;4.63;;
79401;SDS011;68857;47.916;106.940;2023-05-17T01:20:39;6.63;;;4.20;;
79401;SDS011;68857;47.916;106.940;2023-05-17T01:28:09;5.88;;;3.00;;
79401;SDS011;68857;47.916;106.940;2023-05-17T01:30:37;6.40;;;3.47;;
79401;SDS011;68857;47.916;106.940;2023-05-17T01:33:03;5.55;;;4.40;;
79401;SDS011;68857;47.916;106.940;2023-05-17T01:35:30;7.82;;;3.50;;
79401;SDS011;68857;47.916;106.940;2023-05-17T01:37:57;6.70;;;3.90;;
79401;SDS011;68857;47.916;106.940;2023-05-17T01:40:24;5.68;;;4.25;;
79401;SDS011;68857;47.916;106.940;2023-05-17T01:42:55;5.93;;;3.13;;
79401;SDS011;68857;47.916;106.940;2023-05-17T01:45:38;5.00;;;3.00;;
79401;SDS011;68857;47.916;106.940;2023-05-17T01:48:22;6.88;;;3.85;;
79401;SDS011;68857;47.916;106.940;2023-05-17T01:50:51;6.50;;;3.13;;
79401;SDS011;68857;47.916;106.940;2023-05-17T01:53:21;7.03;;;3.92;;
79401;SDS011;68857;47.916;106.940;2023-05-17T01:55:49;6.35;;;3.95;;
79401;SDS011;68857;47.916;106.940;2023-05-17T01:58:17;6.75;;;3.83;;
79401;SDS011;68857;47.916;106.940;2023-05-17T02:00:49;5.70;;;3.70;;
79401;SDS011;68857;47.916;106.940;2023-05-17T02:03:18;7.15;;;4.50;;
79401;SDS011;68857;47.916;106.940;2023-05-17T02:05:45;5.63;;;3.42;;
79401;SDS011;68857;47.916;106.940;2023-05-17T02:08:12;5.60;;;3.35;;
79401;SDS011;68857;47.916;106.940;2023-05-17T02:10:39;7.90;;;4.10;;
79401;SDS011;68857;47.916;106.940;2023-05-17T02:13:05;6.38;;;3.90;;
79401;SDS011;68857;47.916;106.940;2023-05-17T02:15:32;6.38;;;2.95;;
79401;SDS011;68857;47.916;106.940;2023-05-17T02:17:59;5.70;;;3.55;;
79401;SDS011;68857;47.916;106.940;2023-05-17T02:20:26;7.13;;;3.90;;
79401;SDS011;68857;47.916;106.940;2023-05-17T02:22:52;5.80;;;3.17;;
79401;SDS011;68857;47.916;106.940;2023-05-17T02:25:19;6.68;;;4.03;;
79401;SDS011;68857;47.916;106.940;2023-05-17T02:27:46;6.03;;;3.67;;
79401;SDS011;68857;47.916;106.940;2023-05-17T02:30:13;6.07;;;2.97;;
79401;SDS011;68857;47.916;106.940;2023-05-17T02:32:41;5.22;;;3.95;;
79401;SDS011;68857;47.916;106.940;2023-05-17T02:35:08;8.73;;;4.00;;
79401;SDS011;68857;47.916;106.940;2023-05-17T02:37:34;5.60;;;3.42;;
79401;SDS011;68857;47.916;106.940;2023-05-17T02:40:01;5.30;;;3.00;;
79401;SDS011;68857;47.916;106.940;2023-05-17T02:42:32;7.70;;;4.38;;
79401;SDS011;68857;47.916;106.940;2023-05-17T02:44:59;5.93;;;3.70;;
79401;SDS011;68857;47.916;106.940;2023-05-17T02:47:26;7.70;;;7.03;;
79401;SDS011;68857;47.916;106.940;2023-05-17T02:49:52;5.60;;;3.90;;
79401;SDS011;68857;47.916;106.940;2023-05-17T02:52:18;5.95;;;2.97;;
79401;SDS011;68857;47.916;106.940;2023-05-17T02:54:45;5.60;;;3.67;;
79401;SDS011;68857;47.916;106.940;2023-05-17T02:57:12;6.82;;;4.20;;
79401;SDS011;68857;47.916;106.940;2023-05-17T02:59:39;4.88;;;3.58;;
79401;SDS011;68857;47.916;106.940;2023-05-17T03:02:05;6.70;;;3.95;;
79401;SDS011;68857;47.916;106.940;2023-05-17T03:04:31;7.30;;;4.00;;
79401;SDS011;68857;47.916;106.940;2023-05-17T03:06:58;5.70;;;4.38;;
79401;SDS011;68857;47.916;106.940;2023-05-17T03:09:25;6.00;;;3.88;;
79401;SDS011;68857;47.916;106.940;2023-05-17T03:11:54;4.97;;;3.58;;
79401;SDS011;68857;47.916;106.940;2023-05-17T03:14:20;6.72;;;3.70;;
79401;SDS011;68857;47.916;106.940;2023-05-17T03:16:47;5.80;;;3.53;;
79401;SDS011;68857;47.916;106.940;2023-05-17T03:19:13;5.35;;;4.05;;
79401;SDS011;68857;47.916;106.940;2023-05-17T03:21:40;6.82;;;4.32;;
79401;SDS011;68857;47.916;106.940;2023-05-17T03:24:06;9.63;;;4.10;;
79401;SDS011;68857;47.916;106.940;2023-05-17T03:26:33;6.10;;;3.60;;
79401;SDS011;68857;47.916;106.940;2023-05-17T03:29:00;6.82;;;3.92;;
79401;SDS011;68857;47.916;106.940;2023-05-17T03:31:26;7.25;;;3.20;;
79401;SDS011;68857;47.916;106.940;2023-05-17T03:33:53;4.70;;;2.85;;
79401;SDS011;68857;47.916;106.940;2023-05-17T03:36:20;5.45;;;3.42;;
79401;SDS011;68857;47.916;106.940;2023-05-17T03:38:46;5.35;;;3.55;;
79401;SDS011;68857;47.916;106.940;2023-05-17T03:41:13;6.18;;;2.63;;
79401;SDS011;68857;47.916;106.940;2023-05-17T03:43:40;4.85;;;3.13;;
79401;SDS011;68857;47.916;106.940;2023-05-17T03:46:07;4.22;;;3.15;;
79401;SDS011;68857;47.916;106.940;2023-05-17T03:48:33;4.25;;;3.03;;
79401;SDS011;68857;47.916;106.940;2023-05-17T03:51:00;4.38;;;3.00;;
79401;SDS011;68857;47.916;106.940;2023-05-17T03:53:27;4.30;;;2.63;;
79401;SDS011;68857;47.916;106.940;2023-05-17T03:55:53;4.88;;;2.67;;
79401;SDS011;68857;47.916;106.940;2023-05-17T03:58:20;5.22;;;3.10;;
79401;SDS011;68857;47.916;106.940;2023-05-17T04:00:46;4.18;;;2.17;;
79401;SDS011;68857;47.916;106.940;2023-05-17T04:03:13;3.63;;;2.45;;
79401;SDS011;68857;47.916;106.940;2023-05-17T04:05:40;4.10;;;2.70;;
79401;SDS011;68857;47.916;106.940;2023-05-17T04:08:09;3.38;;;1.98;;
79401;SDS011;68857;47.916;106.940;2023-05-17T04:10:36;3.38;;;2.80;;
79401;SDS011;68857;47.916;106.940;2023-05-17T04:13:06;3.97;;;2.42;;
79401;SDS011;68857;47.916;106.940;2023-05-17T04:15:34;3.25;;;2.95;;
79401;SDS011;68857;47.916;106.940;2023-05-17T04:18:00;3.65;;;1.98;;
79401;SDS011;68857;47.916;106.940;2023-05-17T04:20:27;4.88;;;2.53;;
79401;SDS011;68857;47.916;106.940;2023-05-17T04:22:53;2.63;;;2.03;;
79401;SDS011;68857;47.916;106.940;2023-05-17T04:25:20;3.75;;;2.35;;
79401;SDS011;68857;47.916;106.940;2023-05-17T04:27:48;3.47;;;2.33;;
79401;SDS011;68857;47.916;106.940;2023-05-17T04:30:15;3.38;;;2.50;;
79401;SDS011;68857;47.916;106.940;2023-05-17T04:32:41;4.10;;;2.22;;
79401;SDS011;68857;47.916;106.940;2023-05-17T04:35:08;4.30;;;2.33;;
79401;SDS011;68857;47.916;106.940;2023-05-17T04:37:35;4.45;;;3.03;;
79401;SDS011;68857;47.916;106.940;2023-05-17T04:40:04;4.80;;;2.38;;
79401;SDS011;68857;47.916;106.940;2023-05-17T04:42:31;4.60;;;2.00;;
79401;SDS011;68857;47.916;106.940;2023-05-17T04:44:57;3.55;;;2.13;;
79401;SDS011;68857;47.916;106.940;2023-05-17T04:47:24;4.88;;;2.90;;
79401;SDS011;68857;47.916;106.940;2023-05-17T04:49:51;4.78;;;2.10;;
79401;SDS011;68857;47.916;106.940;2023-05-17T04:52:17;2.65;;;1.67;;
79401;SDS011;68857;47.916;106.940;2023-05-17T04:54:44;4.55;;;4.05;;
79401;SDS011;68857;47.916;106.940;2023-05-17T04:57:10;3.00;;;1.60;;
79401;SDS011;68857;47.916;106.940;2023-05-17T04:59:37;2.08;;;1.83;;
79401;SDS011;68857;47.916;106.940;2023-05-17T05:02:04;2.70;;;1.42;;
79401;SDS011;68857;47.916;106.940;2023-05-17T05:04:31;5.70;;;2.28;;
79401;SDS011;68857;47.916;106.940;2023-05-17T05:06:57;2.75;;;1.63;;
79401;SDS011;68857;47.916;106.940;2023-05-17T05:09:24;2.22;;;1.80;;
79401;SDS011;68857;47.916;106.940;2023-05-17T05:11:50;3.08;;;1.63;;
79401;SDS011;68857;47.916;106.940;2023-05-17T05:14:17;4.25;;;1.63;;
79401;SDS011;68857;47.916;106.940;2023-05-17T05:16:43;2.95;;;1.80;;
79401;SDS011;68857;47.916;106.940;2023-05-17T05:19:10;3.70;;;1.67;;
79401;SDS011;68857;47.916;106.940;2023-05-17T05:21:37;5.35;;;2.63;;
79401;SDS011;68857;47.916;106.940;2023-05-17T05:24:03;3.08;;;2.05;;
79401;SDS011;68857;47.916;106.940;2023-05-17T05:26:30;3.33;;;1.70;;
79401;SDS011;68857;47.916;106.940;2023-05-17T05:28:57;4.30;;;2.20;;
79401;SDS011;68857;47.916;106.940;2023-05-17T05:31:23;4.00;;;1.92;;
79401;SDS011;68857;47.916;106.940;2023-05-17T05:33:50;2.25;;;1.90;;
79401;SDS011;68857;47.916;106.940;2023-05-17T05:36:17;2.97;;;1.58;;
79401;SDS011;68857;47.916;106.940;2023-05-17T05:38:43;3.58;;;2.63;;
79401;SDS011;68857;47.916;106.940;2023-05-17T05:41:09;2.90;;;1.58;;
79401;SDS011;68857;47.916;106.940;2023-05-17T05:43:36;2.90;;;2.00;;
79401;SDS011;68857;47.916;106.940;2023-05-17T05:46:03;4.25;;;1.58;;
79401;SDS011;68857;47.916;106.940;2023-05-17T05:48:29;2.92;;;1.98;;
79401;SDS011;68857;47.916;106.940;2023-05-17T05:50:56;2.22;;;1.58;;
79401;SDS011;68857;47.916;106.940;2023-05-17T05:53:23;3.33;;;1.75;;
79401;SDS011;68857;47.916;106.940;2023-05-17T05:55:49;3.10;;;2.17;;
79401;SDS011;68857;47.916;106.940;2023-05-17T05:58:16;5.82;;;1.85;;
79401;SDS011;68857;47.916;106.940;2023-05-17T06:00:42;5.20;;;2.22;;
79401;SDS011;68857;47.916;106.940;2023-05-17T06:03:09;6.07;;;1.73;;
79401;SDS011;68857;47.916;106.940;2023-05-17T06:05:36;3.03;;;2.13;;
79401;SDS011;68857;47.916;106.940;2023-05-17T06:08:03;5.30;;;1.85;;
79401;SDS011;68857;47.916;106.940;2023-05-17T06:10:29;3.50;;;1.63;;
79401;SDS011;68857;47.916;106.940;2023-05-17T06:12:56;5.70;;;2.30;;
79401;SDS011;68857;47.916;106.940;2023-05-17T06:15:23;6.35;;;2.88;;
79401;SDS011;68857;47.916;106.940;2023-05-17T06:17:49;4.68;;;2.50;;
79401;SDS011;68857;47.916;106.940;2023-05-17T06:20:16;4.07;;;2.15;;
79401;SDS011;68857;47.916;106.940;2023-05-17T06:22:42;3.28;;;1.90;;
79401;SDS011;68857;47.916;106.940;2023-05-17T06:25:09;3.33;;;1.75;;
79401;SDS011;68857;47.916;106.940;2023-05-17T06:27:36;3.78;;;1.42;;
79401;SDS011;68857;47.916;106.940;2023-05-17T06:30:03;4.68;;;2.40;;
79401;SDS011;68857;47.916;106.940;2023-05-17T06:32:29;4.97;;;2.15;;
79401;SDS011;68857;47.916;106.940;2023-05-17T06:34:56;4.07;;;1.98;;
79401;SDS011;68857;47.916;106.940;2023-05-17T06:37:23;4.15;;;2.13;;
79401;SDS011;68857;47.916;106.940;2023-05-17T06:39:50;3.88;;;1.95;;
79401;SDS011;68857;47.916;106.940;2023-05-17T06:42:17;5.22;;;1.73;;
79401;SDS011;68857;47.916;106.940;2023-05-17T06:44:43;5.93;;;2.20;;
79401;SDS011;68857;47.916;106.940;2023-05-17T06:47:10;5.75;;;2.05;;
79401;SDS011;68857;47.916;106.940;2023-05-17T06:49:36;4.47;;;2.10;;
79401;SDS011;68857;47.916;106.940;2023-05-17T06:52:03;6.65;;;1.67;;
79401;SDS011;68857;47.916;106.940;2023-05-17T06:54:30;3.58;;;1.42;;
79401;SDS011;68857;47.916;106.940;2023-05-17T06:57:03;3.65;;;1.77;;
79401;SDS011;68857;47.916;106.940;2023-05-17T06:59:29;4.32;;;1.83;;
79401;SDS011;68857;47.916;106.940;2023-05-17T07:01:56;3.28;;;1.95;;
79401;SDS011;68857;47.916;106.940;2023-05-17T07:04:25;3.20;;;1.75;;
79401;SDS011;68857;47.916;106.940;2023-05-17T07:06:51;5.05;;;1.90;;
79401;SDS011;68857;47.916;106.940;2023-05-17T07:09:18;6.03;;;2.13;;
79401;SDS011;68857;47.916;106.940;2023-05-17T07:11:45;3.17;;;1.83;;
79401;SDS011;68857;47.916;106.940;2023-05-17T07:14:12;3.53;;;1.65;;
79401;SDS011;68857;47.916;106.940;2023-05-17T07:16:38;2.75;;;1.92;;
79401;SDS011;68857;47.916;106.940;2023-05-17T07:19:05;2.72;;;1.33;;
79401;SDS011;68857;47.916;106.940;2023-05-17T07:21:32;3.65;;;3.20;;
79401;SDS011;68857;47.916;106.940;2023-05-17T07:23:58;4.22;;;2.25;;
79401;SDS011;68857;47.916;106.940;2023-05-17T07:26:25;2.67;;;2.00;;
79401;SDS011;68857;47.916;106.940;2023-05-17T07:28:52;6.15;;;1.95;;
79401;SDS011;68857;47.916;106.940;2023-05-17T07:31:18;3.95;;;1.98;;
79401;SDS011;68857;47.916;106.940;2023-05-17T07:33:45;3.45;;;1.48;;
79401;SDS011;68857;47.916;106.940;2023-05-17T07:36:11;5.95;;;1.48;;
79401;SDS011;68857;47.916;106.940;2023-05-17T07:38:38;4.97;;;2.58;;
79401;SDS011;68857;47.916;106.940;2023-05-17T07:41:05;3.72;;;2.08;;
79401;SDS011;68857;47.916;106.940;2023-05-17T07:43:35;6.68;;;1.85;;
79401;SDS011;68857;47.916;106.940;2023-05-17T07:46:02;2.38;;;1.85;;
79401;SDS011;68857;47.916;106.940;2023-05-17T07:48:28;5.18;;;1.15;;
79401;SDS011;68857;47.916;106.940;2023-05-17T07:50:55;3.47;;;1.70;;
79401;SDS011;68857;47.916;106.940;2023-05-17T07:53:22;6.25;;;2.33;;
79401;SDS011;68857;47.916;106.940;2023-05-17T07:55:49;3.08;;;1.70;;
79401;SDS011;68857;47.916;106.940;2023-05-17T07:58:16;6.72;;;1.95;;
79401;SDS011;68857;47.916;106.940;2023-05-17T08:00:43;4.35;;;1.77;;
79401;SDS011;68857;47.916;106.940;2023-05-17T08:03:10;7.13;;;2.17;;
79401;SDS011;68857;47.916;106.940;2023-05-17T08:05:36;5.72;;;1.77;;
79401;SDS011;68857;47.916;106.940;2023-05-17T08:08:03;7.13;;;2.35;;
79401;SDS011;68857;47.916;106.940;2023-05-17T08:10:30;5.78;;;2.28;;
79401;SDS011;68857;47.916;106.940;2023-05-17T08:12:56;6.68;;;2.53;;
79401;SDS011;68857;47.916;106.940;2023-05-17T08:15:23;4.35;;;2.53;;
79401;SDS011;68857;47.916;106.940;2023-05-17T08:17:50;3.08;;;1.65;;
79401;SDS011;68857;47.916;106.940;2023-05-17T08:20:17;4.05;;;1.55;;
79401;SDS011;68857;47.916;106.940;2023-05-17T08:22:43;4.75;;;3.42;;
79401;SDS011;68857;47.916;106.940;2023-05-17T08:25:10;7.05;;;1.95;;
79401;SDS011;68857;47.916;106.940;2023-05-17T08:27:36;4.28;;;2.38;;
79401;SDS011;68857;47.916;106.940;2023-05-17T08:30:04;4.05;;;2.28;;
79401;SDS011;68857;47.916;106.940;2023-05-17T08:32:30;4.53;;;1.88;;
79401;SDS011;68857;47.916;106.940;2023-05-17T08:34:56;4.20;;;1.83;;
79401;SDS011;68857;47.916;106.940;2023-05-17T08:37:23;2.92;;;1.65;;
79401;SDS011;68857;47.916;106.940;2023-05-17T08:39:50;3.75;;;1.35;;
79401;SDS011;68857;47.916;106.940;2023-05-17T08:42:20;6.07;;;1.98;;
79401;SDS011;68857;47.916;106.940;2023-05-17T08:44:49;5.18;;;1.33;;
79401;SDS011;68857;47.916;106.940;2023-05-17T08:47:17;5.30;;;1.95;;
79401;SDS011;68857;47.916;106.940;2023-05-17T08:49:54;4.25;;;1.88;;
79401;SDS011;68857;47.916;106.940;2023-05-17T08:52:30;3.58;;;1.50;;
79401;SDS011;68857;47.916;106.940;2023-05-17T08:54:57;3.15;;;2.25;;
79401;SDS011;68857;47.916;106.940;2023-05-17T08:57:30;2.90;;;0.93;;
79401;SDS011;68857;47.916;106.940;2023-05-17T08:59:58;4.43;;;1.55;;
79401;SDS011;68857;47.916;106.940;2023-05-17T09:02:25;5.18;;;2.03;;
79401;SDS011;68857;47.916;106.940;2023-05-17T09:04:53;5.68;;;1.95;;
79401;SDS011;68857;47.916;106.940;2023-05-17T09:07:23;4.30;;;1.73;;
79401;SDS011;68857;47.916;106.940;2023-05-17T09:09:52;5.13;;;1.75;;
79401;SDS011;68857;47.916;106.940;2023-05-17T09:12:19;3.67;;;1.95;;
79401;SDS011;68857;47.916;106.940;2023-05-17T09:14:46;5.05;;;1.73;;
79401;SDS011;68857;47.916;106.940;2023-05-17T09:17:14;3.45;;;1.40;;
79401;SDS011;68857;47.916;106.940;2023-05-17T09:19:42;4.50;;;2.60;;
79401;SDS011;68857;47.916;106.940;2023-05-17T09:22:12;3.78;;;1.90;;
79401;SDS011;68857;47.916;106.940;2023-05-17T09:24:40;4.18;;;1.60;;
79401;SDS011;68857;47.916;106.940;2023-05-17T09:27:07;5.50;;;1.60;;
79401;SDS011;68857;47.916;106.940;2023-05-17T09:29:34;5.35;;;2.03;;
79401;SDS011;68857;47.916;106.940;2023-05-17T09:32:13;4.50;;;2.15;;
79401;SDS011;68857;47.916;106.940;2023-05-17T09:34:41;3.47;;;1.50;;
79401;SDS011;68857;47.916;106.940;2023-05-17T09:37:14;4.45;;;2.03;;
79401;SDS011;68857;47.916;106.940;2023-05-17T09:39:41;4.28;;;2.28;;
79401;SDS011;68857;47.916;106.940;2023-05-17T09:42:12;4.28;;;2.13;;
79401;SDS011;68857;47.916;106.940;2023-05-17T09:44:52;7.20;;;2.95;;
79401;SDS011;68857;47.916;106.940;2023-05-17T09:47:23;6.70;;;3.83;;
79401;SDS011;68857;47.916;106.940;2023-05-17T09:49:50;5.75;;;2.55;;
79401;SDS011;68857;47.916;106.940;2023-05-17T09:52:21;6.53;;;2.72;;
79401;SDS011;68857;47.916;106.940;2023-05-17T09:54:55;3.78;;;2.03;;
79401;SDS011;68857;47.916;106.940;2023-05-17T09:57:22;6.43;;;2.40;;
79401;SDS011;68857;47.916;106.940;2023-05-17T09:59:50;6.97;;;2.83;;
79401;SDS011;68857;47.916;106.940;2023-05-17T10:02:22;5.00;;;2.20;;
79401;SDS011;68857;47.916;106.940;2023-05-17T10:04:51;4.13;;;1.70;;
79401;SDS011;68857;47.916;106.940;2023-05-17T10:07:20;5.75;;;1.85;;
79401;SDS011;68857;47.916;106.940;2023-05-17T10:09:50;3.63;;;2.05;;
79401;SDS011;68857;47.916;106.940;2023-05-17T10:12:18;5.05;;;1.73;;
79401;SDS011;68857;47.916;106.940;2023-05-17T10:14:49;5.93;;;1.92;;
79401;SDS011;68857;47.916;106.940;2023-05-17T10:17:20;3.80;;;1.58;;
79401;SDS011;68857;47.916;106.940;2023-05-17T10:19:47;9.18;;;1.77;;
79401;SDS011;68857;47.916;106.940;2023-05-17T10:22:14;3.55;;;2.20;;
79401;SDS011;68857;47.916;106.940;2023-05-17T10:24:42;5.55;;;2.08;;
79401;SDS011;68857;47.916;106.940;2023-05-17T10:27:10;3.45;;;1.70;;
79401;SDS011;68857;47.916;106.940;2023-05-17T10:29:38;5.20;;;1.50;;
79401;SDS011;68857;47.916;106.940;2023-05-17T10:32:05;4.43;;;1.65;;
79401;SDS011;68857;47.916;106.940;2023-05-17T10:34:33;4.90;;;1.35;;
79401;SDS011;68857;47.916;106.940;2023-05-17T10:37:00;2.67;;;1.80;;
79401;SDS011;68857;47.916;106.940;2023-05-17T10:39:27;4.40;;;1.67;;
79401;SDS011;68857;47.916;106.940;2023-05-17T10:41:54;5.30;;;1.70;;
79401;SDS011;68857;47.916;106.940;2023-05-17T10:44:22;6.35;;;2.35;;
79401;SDS011;68857;47.916;106.940;2023-05-17T10:46:51;3.38;;;1.90;;
79401;SDS011;68857;47.916;106.940;2023-05-17T10:49:18;5.43;;;1.90;;
79401;SDS011;68857;47.916;106.940;2023-05-17T10:51:45;4.57;;;2.35;;
79401;SDS011;68857;47.916;106.940;2023-05-17T10:54:12;6.18;;;3.17;;
79401;SDS011;68857;47.916;106.940;2023-05-17T10:56:49;4.03;;;2.00;;
79401;SDS011;68857;47.916;106.940;2023-05-17T10:59:17;4.63;;;2.10;;
79401;SDS011;68857;47.916;106.940;2023-05-17T11:02:02;4.72;;;2.38;;
79401;SDS011;68857;47.916;106.940;2023-05-17T11:07:18;3.58;;;2.03;;
79401;SDS011;68857;47.916;106.940;2023-05-17T11:09:52;6.00;;;5.40;;
79401;SDS011;68857;47.916;106.940;2023-05-17T11:12:30;3.55;;;2.97;;
79401;SDS011;68857;47.916;106.940;2023-05-17T11:14:58;4.28;;;1.83;;
79401;SDS011;68857;47.916;106.940;2023-05-17T11:17:33;4.70;;;2.90;;
79401;SDS011;68857;47.916;106.940;2023-05-17T11:20:00;3.92;;;1.35;;
79401;SDS011;68857;47.916;106.940;2023-05-17T11:22:33;5.88;;;1.48;;
79401;SDS011;68857;47.916;106.940;2023-05-17T11:25:01;3.65;;;1.58;;
79401;SDS011;68857;47.916;106.940;2023-05-17T11:27:34;6.28;;;2.47;;
79401;SDS011;68857;47.916;106.940;2023-05-17T11:30:39;4.40;;;1.92;;
79401;SDS011;68857;47.916;106.940;2023-05-17T11:32:58;5.70;;;2.25;;
79401;SDS011;68857;47.916;106.940;2023-05-17T11:35:26;6.35;;;3.40;;
79401;SDS011;68857;47.916;106.940;2023-05-17T11:38:11;4.47;;;2.92;;
79401;SDS011;68857;47.916;106.940;2023-05-17T11:40:41;5.70;;;2.20;;
79401;SDS011;68857;47.916;106.940;2023-05-17T11:43:15;3.58;;;2.25;;
79401;SDS011;68857;47.916;106.940;2023-05-17T11:45:48;10.70;;;2.45;;
79401;SDS011;68857;47.916;106.940;2023-05-17T11:48:16;7.50;;;2.45;;
79401;SDS011;68857;47.916;106.940;2023-05-17T11:50:43;5.40;;;2.45;;
79401;SDS011;68857;47.916;106.940;2023-05-17T11:53:11;4.55;;;1.70;;
79401;SDS011;68857;47.916;106.940;2023-05-17T11:55:41;4.15;;;2.55;;
79401;SDS011;68857;47.916;106.940;2023-05-17T11:58:09;4.03;;;2.08;;
79401;SDS011;68857;47.916;106.940;2023-05-17T12:00:36;7.47;;;2.63;;
79401;SDS011;68857;47.916;106.940;2023-05-17T12:03:22;5.63;;;1.63;;
79401;SDS011;68857;47.916;106.940;2023-05-17T12:05:49;7.22;;;2.47;;
79401;SDS011;68857;47.916;106.940;2023-05-17T12:08:17;6.72;;;2.35;;
79401;SDS011;68857;47.916;106.940;2023-05-17T12:10:53;6.80;;;2.25;;
79401;SDS011;68857;47.916;106.940;2023-05-17T12:13:21;5.82;;;2.58;;
79401;SDS011;68857;47.916;106.940;2023-05-17T12:15:52;8.05;;;1.98;;
79401;SDS011;68857;47.916;106.940;2023-05-17T12:18:20;5.93;;;1.85;;
79401;SDS011;68857;47.916;106.940;2023-05-17T12:20:53;7.22;;;2.45;;
79401;SDS011;68857;47.916;106.940;2023-05-17T12:23:27;4.85;;;2.05;;
79401;SDS011;68857;47.916;106.940;2023-05-17T12:26:01;8.35;;;4.95;;
79401;SDS011;68857;47.916;106.940;2023-05-17T12:28:27;6.50;;;2.50;;
79401;SDS011;68857;47.916;106.940;2023-05-17T12:30:54;6.47;;;3.20;;
79401;SDS011;68857;47.916;106.940;2023-05-17T12:33:30;6.93;;;2.78;;
79401;SDS011;68857;47.916;106.940;2023-05-17T12:35:57;7.30;;;3.33;;
79401;SDS011;68857;47.916;106.940;2023-05-17T12:38:24;6.30;;;2.28;;
79401;SDS011;68857;47.916;106.940;2023-05-17T12:40:53;7.75;;;3.20;;
79401;SDS011;68857;47.916;106.940;2023-05-17T12:43:22;6.72;;;3.35;;
79401;SDS011;68857;47.916;106.940;2023-05-17T12:45:48;7.07;;;3.03;;
79401;SDS011;68857;47.916;106.940;2023-05-17T12:48:15;9.88;;;3.72;;
79401;SDS011;68857;47.916;106.940;2023-05-17T12:50:42;7.80;;;2.95;;
79401;SDS011;68857;47.916;106.940;2023-05-17T12:53:10;8.27;;;3.05;;
79401;SDS011;68857;47.916;106.940;2023-05-17T12:55:37;7.50;;;3.88;;
79401;SDS011;68857;47.916;106.940;2023-05-17T12:58:03;8.75;;;3.67;;
79401;SDS011;68857;47.916;106.940;2023-05-17T13:00:30;9.68;;;4.07;;
79401;SDS011;68857;47.916;106.940;2023-05-17T13:02:57;5.28;;;3.20;;
79401;SDS011;68857;47.916;106.940;2023-05-17T13:05:24;8.15;;;3.65;;
79401;SDS011;68857;47.916;106.940;2023-05-17T13:07:50;7.43;;;4.53;;
79401;SDS011;68857;47.916;106.940;2023-05-17T13:12:53;6.95;;;3.75;;
79401;SDS011;68857;47.916;106.940;2023-05-17T13:15:25;5.95;;;3.22;;
79401;SDS011;68857;47.916;106.940;2023-05-17T13:17:51;10.18;;;4.30;;
79401;SDS011;68857;47.916;106.940;2023-05-17T13:20:18;7.63;;;4.22;;
79401;SDS011;68857;47.916;106.940;2023-05-17T13:22:45;7.82;;;3.95;;
79401;SDS011;68857;47.916;106.940;2023-05-17T13:25:12;8.65;;;3.67;;
79401;SDS011;68857;47.916;106.940;2023-05-17T13:27:38;8.73;;;4.22;;
79401;SDS011;68857;47.916;106.940;2023-05-17T13:30:12;7.82;;;4.53;;
79401;SDS011;68857;47.916;106.940;2023-05-17T13:32:39;7.32;;;4.38;;
79401;SDS011;68857;47.916;106.940;2023-05-17T13:35:06;8.18;;;3.97;;
79401;SDS011;68857;47.916;106.940;2023-05-17T13:37:33;8.95;;;4.22;;
79401;SDS011;68857;47.916;106.940;2023-05-17T13:40:01;7.53;;;4.35;;
79401;SDS011;68857;47.916;106.940;2023-05-17T13:42:28;8.25;;;4.50;;
79401;SDS011;68857;47.916;106.940;2023-05-17T13:44:54;9.63;;;4.47;;
79401;SDS011;68857;47.916;106.940;2023-05-17T13:47:21;8.88;;;5.00;;
79401;SDS011;68857;47.916;106.940;2023-05-17T13:49:48;10.45;;;4.85;;
79401;SDS011;68857;47.916;106.940;2023-05-17T13:52:14;9.30;;;4.28;;
79401;SDS011;68857;47.916;106.940;2023-05-17T13:54:42;7.00;;;4.80;;
79401;SDS011;68857;47.916;106.940;2023-05-17T13:57:09;12.07;;;5.38;;
79401;SDS011;68857;47.916;106.940;2023-05-17T13:59:36;9.10;;;5.15;;
79401;SDS011;68857;47.916;106.940;2023-05-17T14:02:03;8.85;;;4.43;;
79401;SDS011;68857;47.916;106.940;2023-05-17T14:04:30;13.02;;;5.20;;
79401;SDS011;68857;47.916;106.940;2023-05-17T14:06:56;9.32;;;5.35;;
79401;SDS011;68857;47.916;106.940;2023-05-17T14:09:23;8.73;;;4.43;;
79401;SDS011;68857;47.916;106.940;2023-05-17T14:11:49;9.93;;;4.65;;
79401;SDS011;68857;47.916;106.940;2023-05-17T14:14:16;9.63;;;4.90;;
79401;SDS011;68857;47.916;106.940;2023-05-17T14:16:42;9.75;;;4.88;;
79401;SDS011;68857;47.916;106.940;2023-05-17T14:19:10;8.85;;;4.93;;
79401;SDS011;68857;47.916;106.940;2023-05-17T14:21:36;10.48;;;4.82;;
79401;SDS011;68857;47.916;106.940;2023-05-17T14:24:03;11.98;;;5.22;;
79401;SDS011;68857;47.916;106.940;2023-05-17T14:26:29;10.13;;;5.53;;
79401;SDS011;68857;47.916;106.940;2023-05-17T14:28:56;12.93;;;5.28;;
79401;SDS011;68857;47.916;106.940;2023-05-17T14:31:23;10.15;;;5.03;;
79401;SDS011;68857;47.916;106.940;2023-05-17T14:33:49;10.02;;;5.22;;
79401;SDS011;68857;47.916;106.940;2023-05-17T14:36:16;10.70;;;5.57;;
79401;SDS011;68857;47.916;106.940;2023-05-17T14:38:42;12.40;;;6.03;;
79401;SDS011;68857;47.916;106.940;2023-05-17T14:41:09;11.52;;;5.32;;